首页
METAR-TAF:

METAR-TAF

机场 :

水牛城, 紐約州, 美国

纬度: 42-56-27N, 经度: 078-44-09W, 海拔: 220米

当前天气观测

该预报发布于15分钟前的06:26 UTC
风速12节,风向西南
温度 21°C
湿度 94%
气压 1005 hPa
能見度: 4.0公里
阴天层高于600英尺
大雨, 轻雾

METAR: KBUF 250626Z 22012KT 2 1/2SM +RA BR OVC006 21/20 A2967 RMK AO2 CIG 003V009 P0006 T02110200

时间: 02:41 (06:41 UTC)

预报

该预报发布于22分钟前的06:19 UTC
预报有效从25日的 06点(UTC)到 26日的 06点(UTC)
风速10节,风向西南
能見度: 9.7公里
多云层高于700英尺
小雨
短暂存在
从 25日的 06点(UTC)到 25日的 08点(UTC)
散云层高于700英尺
阴天层高于1500英尺
从 25日的 0800点(UTC)
风速12节,风向西转西南
能見度: 8.0公里
多云层高于700英尺
轻雾
从 25日的 1100点(UTC)
风速12节,风向西转西南
能見度: 10公里
多云层高于2500英尺
从 25日的 1400点(UTC)
风速16节,风向西转西南,有时为26节阵风
能見度: 10公里
多云层高于9000英尺
从 25日的 1800点(UTC)
风速20节,风向西转西南,有时为30节阵风
能見度: 10公里
散云层高于5000英尺
散云层高于10000英尺
从 25日的 2300点(UTC)
风速12节,风向西南
能見度: 10公里
少量云层高于25000英尺

TAF: KBUF 250619Z 2506/2606 22010KT 6SM -RA BKN007 TEMPO 2506/2508 SCT007 OVC015 FM250800 24012KT 5SM BR BKN007 FM251100 24012KT P6SM BKN025 FM251400 24016G26KT P6SM BKN090 FM251800 24020G30KT P6SM SCT050 SCT100 FM252300 23012KT P6SM FEW250

超过4000个机场的气象观测和天气预报(METAR&TAF报告)。

可查询的气象台以黄色和红色小点在地图上表示。

将鼠标移到小点上方,可查看气象台名称。

然后点击查看天气观测和预报。

如需切换地图:点击带黑十字的绿色按钮放大地图;点击带横线的绿色按钮缩小地图;或者点击绿色箭头查看邻近地区的地图。


METAR-TAF: